sensor_id;sensor_type;location;lat;lon;timestamp;pressure;altitude;pressure_sealevel;temperature;humidity
6134;BME280;3098;42.678;23.364;2023-01-29T00:01:47;95018.97;;;-0.50;100.00
6134;BME280;3098;42.678;23.364;2023-01-29T00:04:17;94983.78;;;-0.70;100.00
6134;BME280;3098;42.678;23.364;2023-01-29T00:06:49;94973.09;;;-0.85;100.00
6134;BME280;3098;42.678;23.364;2023-01-29T00:09:21;95007.94;;;-0.57;100.00
6134;BME280;3098;42.678;23.364;2023-01-29T00:11:51;95027.59;;;-0.50;100.00
6134;BME280;3098;42.678;23.364;2023-01-29T00:14:22;95008.88;;;-0.64;100.00
6134;BME280;3098;42.678;23.364;2023-01-29T00:16:53;94994.91;;;-0.74;100.00
6134;BME280;3098;42.678;23.364;2023-01-29T00:19:23;95039.28;;;-0.52;100.00
6134;BME280;3098;42.678;23.364;2023-01-29T00:21:52;95044.56;;;-0.47;100.00
6134;BME280;3098;42.678;23.364;2023-01-29T00:24:21;95041.63;;;-0.51;100.00
6134;BME280;3098;42.678;23.364;2023-01-29T00:26:48;95039.91;;;-0.45;100.00
6134;BME280;3098;42.678;23.364;2023-01-29T00:29:17;95048.22;;;-0.48;100.00
6134;BME280;3098;42.678;23.364;2023-01-29T00:31:45;95008.56;;;-0.67;100.00
6134;BME280;3098;42.678;23.364;2023-01-29T00:34:12;95048.22;;;-0.48;100.00
6134;BME280;3098;42.678;23.364;2023-01-29T00:36:40;95051.38;;;-0.46;100.00
6134;BME280;3098;42.678;23.364;2023-01-29T00:39:10;95011.94;;;-0.67;100.00
6134;BME280;3098;42.678;23.364;2023-01-29T00:41:37;94989.28;;;-0.83;100.00
6134;BME280;3098;42.678;23.364;2023-01-29T00:44:22;95043.00;;;-0.48;100.00
6134;BME280;3098;42.678;23.364;2023-01-29T00:47:08;95045.13;;;-0.45;100.00
6134;BME280;3098;42.678;23.364;2023-01-29T00:49:56;95051.38;;;-0.46;100.00
6134;BME280;3098;42.678;23.364;2023-01-29T00:52:26;94958.38;;;-1.07;100.00
6134;BME280;3098;42.678;23.364;2023-01-29T00:54:58;95011.94;;;-0.67;100.00
6134;BME280;3098;42.678;23.364;2023-01-29T00:57:29;95048.50;;;-0.45;100.00
6134;BME280;3098;42.678;23.364;2023-01-29T00:59:59;95039.13;;;-0.46;100.00
6134;BME280;3098;42.678;23.364;2023-01-29T01:02:33;95043.78;;;-0.48;100.00
6134;BME280;3098;42.678;23.364;2023-01-29T01:05:17;95038.09;;;-0.45;100.00
6134;BME280;3098;42.678;23.364;2023-01-29T01:07:48;95045.91;;;-0.45;100.00
6134;BME280;3098;42.678;23.364;2023-01-29T01:10:17;94980.59;;;-0.88;100.00
6134;BME280;3098;42.678;23.364;2023-01-29T01:12:52;95049.22;;;-0.49;100.00
6134;BME280;3098;42.678;23.364;2023-01-29T01:15:23;94994.78;;;-0.79;100.00
6134;BME280;3098;42.678;23.364;2023-01-29T01:18:10;95016.69;;;-0.64;100.00
6134;BME280;3098;42.678;23.364;2023-01-29T01:20:41;94972.94;;;-0.95;100.00
6134;BME280;3098;42.678;23.364;2023-01-29T01:23:18;95039.03;;;-0.51;100.00
6134;BME280;3098;42.678;23.364;2023-01-29T01:25:57;94942.06;;;-1.03;100.00
6134;BME280;3098;42.678;23.364;2023-01-29T01:28:24;95042.44;;;-0.50;100.00
6134;BME280;3098;42.678;23.364;2023-01-29T01:30:51;95029.88;;;-0.53;100.00
6134;BME280;3098;42.678;23.364;2023-01-29T01:33:20;95035.47;;;-0.62;100.00
6134;BME280;3098;42.678;23.364;2023-01-29T01:35:47;94845.63;;;-1.86;100.00
6134;BME280;3098;42.678;23.364;2023-01-29T01:38:14;95033.16;;;-0.75;100.00
6134;BME280;3098;42.678;23.364;2023-01-29T01:40:44;94936.91;;;-1.31;100.00
6134;BME280;3098;42.678;23.364;2023-01-29T01:43:11;95040.94;;;-0.63;100.00
6134;BME280;3098;42.678;23.364;2023-01-29T01:45:38;94984.34;;;-0.96;100.00
6134;BME280;3098;42.678;23.364;2023-01-29T01:48:10;94852.88;;;-1.88;100.00
6134;BME280;3098;42.678;23.364;2023-01-29T01:50:47;95050.09;;;-0.61;100.00
6134;BME280;3098;42.678;23.364;2023-01-29T01:53:21;95017.34;;;-0.85;100.00
6134;BME280;3098;42.678;23.364;2023-01-29T01:55:55;95049.03;;;-0.60;100.00
6134;BME280;3098;42.678;23.364;2023-01-29T01:58:27;94988.22;;;-0.98;100.00
6134;BME280;3098;42.678;23.364;2023-01-29T02:00:56;95026.84;;;-0.79;100.00
6134;BME280;3098;42.678;23.364;2023-01-29T02:03:25;95035.59;;;-0.68;100.00
6134;BME280;3098;42.678;23.364;2023-01-29T02:06:12;95058.69;;;-0.60;100.00
6134;BME280;3098;42.678;23.364;2023-01-29T02:09:00;95065.47;;;-0.59;100.00
6134;BME280;3098;42.678;23.364;2023-01-29T02:11:46;95024.81;;;-0.77;100.00
6134;BME280;3098;42.678;23.364;2023-01-29T02:14:14;95040.59;;;-0.67;100.00
6134;BME280;3098;42.678;23.364;2023-01-29T02:16:41;94974.16;;;-1.14;100.00
6134;BME280;3098;42.678;23.364;2023-01-29T02:19:15;95057.25;;;-0.68;100.00
6134;BME280;3098;42.678;23.364;2023-01-29T02:21:56;95056.31;;;-0.62;100.00
6134;BME280;3098;42.678;23.364;2023-01-29T02:27:20;95053.31;;;-0.53;100.00
6134;BME280;3098;42.678;23.364;2023-01-29T02:29:56;95060.72;;;-0.62;100.00
6134;BME280;3098;42.678;23.364;2023-01-29T02:32:30;95060.88;;;-0.69;100.00
6134;BME280;3098;42.678;23.364;2023-01-29T02:35:10;95048.88;;;-0.70;100.00
6134;BME280;3098;42.678;23.364;2023-01-29T02:38:08;95053.16;;;-0.64;100.00
6134;BME280;3098;42.678;23.364;2023-01-29T02:40:41;95070.69;;;-0.59;100.00
6134;BME280;3098;42.678;23.364;2023-01-29T02:43:21;95063.38;;;-0.74;100.00
6134;BME280;3098;42.678;23.364;2023-01-29T02:46:12;95083.94;;;-0.61;100.00
6134;BME280;3098;42.678;23.364;2023-01-29T02:48:51;95080.56;;;-0.61;100.00
6134;BME280;3098;42.678;23.364;2023-01-29T02:51:33;95069.16;;;-0.72;100.00
6134;BME280;3098;42.678;23.364;2023-01-29T02:54:15;95046.31;;;-0.81;100.00
6134;BME280;3098;42.678;23.364;2023-01-29T02:56:52;95058.88;;;-0.78;100.00
6134;BME280;3098;42.678;23.364;2023-01-29T02:59:28;95060.00;;;-0.74;100.00
6134;BME280;3098;42.678;23.364;2023-01-29T03:02:11;95076.13;;;-0.61;100.00
6134;BME280;3098;42.678;23.364;2023-01-29T03:04:45;94974.78;;;-1.35;100.00
6134;BME280;3098;42.678;23.364;2023-01-29T03:07:17;95083.88;;;-0.66;100.00
6134;BME280;3098;42.678;23.364;2023-01-29T03:10:10;95062.16;;;-0.71;100.00
6134;BME280;3098;42.678;23.364;2023-01-29T03:12:42;95075.88;;;-0.59;100.00
6134;BME280;3098;42.678;23.364;2023-01-29T03:15:15;95064.50;;;-0.70;100.00
6134;BME280;3098;42.678;23.364;2023-01-29T03:17:54;95091.44;;;-0.64;100.00
6134;BME280;3098;42.678;23.364;2023-01-29T03:20:26;95101.13;;;-0.60;100.00
6134;BME280;3098;42.678;23.364;2023-01-29T03:22:59;95085.75;;;-0.61;100.00
6134;BME280;3098;42.678;23.364;2023-01-29T03:25:28;95014.38;;;-1.05;100.00
6134;BME280;3098;42.678;23.364;2023-01-29T03:28:16;95083.47;;;-0.57;100.00
6134;BME280;3098;42.678;23.364;2023-01-29T03:31:04;95088.84;;;-0.47;100.00
6134;BME280;3098;42.678;23.364;2023-01-29T03:33:59;95086.63;;;-0.55;100.00
6134;BME280;3098;42.678;23.364;2023-01-29T03:36:33;95094.47;;;-0.55;100.00
6134;BME280;3098;42.678;23.364;2023-01-29T03:39:04;95051.19;;;-0.85;100.00
6134;BME280;3098;42.678;23.364;2023-01-29T03:41:34;95092.66;;;-0.55;100.00
6134;BME280;3098;42.678;23.364;2023-01-29T03:44:10;95093.53;;;-0.49;100.00
6134;BME280;3098;42.678;23.364;2023-01-29T03:46:43;95016.25;;;-0.89;100.00
6134;BME280;3098;42.678;23.364;2023-01-29T03:49:25;95058.75;;;-0.72;100.00
6134;BME280;3098;42.678;23.364;2023-01-29T03:52:01;94935.16;;;-1.54;100.00
6134;BME280;3098;42.678;23.364;2023-01-29T03:54:39;95091.13;;;-0.51;100.00
6134;BME280;3098;42.678;23.364;2023-01-29T03:57:27;95087.56;;;-0.62;100.00
6134;BME280;3098;42.678;23.364;2023-01-29T04:00:02;95046.03;;;-0.96;100.00
6134;BME280;3098;42.678;23.364;2023-01-29T04:02:37;95061.63;;;-0.85;100.00
6134;BME280;3098;42.678;23.364;2023-01-29T04:05:15;95073.72;;;-0.79;100.00
6134;BME280;3098;42.678;23.364;2023-01-29T04:07:43;95100.13;;;-0.59;100.00
6134;BME280;3098;42.678;23.364;2023-01-29T04:10:15;95100.84;;;-0.63;100.00
6134;BME280;3098;42.678;23.364;2023-01-29T04:12:46;95097.56;;;-0.70;100.00
6134;BME280;3098;42.678;23.364;2023-01-29T04:15:16;95100.84;;;-0.63;100.00
6134;BME280;3098;42.678;23.364;2023-01-29T04:17:49;95107.59;;;-0.62;100.00
6134;BME280;3098;42.678;23.364;2023-01-29T04:20:19;95087.06;;;-0.75;100.00
6134;BME280;3098;42.678;23.364;2023-01-29T04:22:49;95087.63;;;-0.73;100.00
6134;BME280;3098;42.678;23.364;2023-01-29T04:25:21;95077.13;;;-0.78;100.00
6134;BME280;3098;42.678;23.364;2023-01-29T04:27:57;95103.75;;;-0.60;100.00
6134;BME280;3098;42.678;23.364;2023-01-29T04:30:40;95092.16;;;-0.69;100.00
6134;BME280;3098;42.678;23.364;2023-01-29T04:33:20;95077.13;;;-0.78;100.00
6134;BME280;3098;42.678;23.364;2023-01-29T04:36:14;95112.19;;;-0.69;100.00
6134;BME280;3098;42.678;23.364;2023-01-29T04:38:53;95085.31;;;-0.86;100.00
6134;BME280;3098;42.678;23.364;2023-01-29T04:41:28;94962.56;;;-1.63;100.00
6134;BME280;3098;42.678;23.364;2023-01-29T04:44:01;95114.88;;;-0.64;100.00
6134;BME280;3098;42.678;23.364;2023-01-29T04:46:38;95113.63;;;-0.62;100.00
6134;BME280;3098;42.678;23.364;2023-01-29T04:49:16;95108.06;;;-0.65;100.00
6134;BME280;3098;42.678;23.364;2023-01-29T04:51:50;95108.41;;;-0.62;100.00
6134;BME280;3098;42.678;23.364;2023-01-29T04:54:30;95015.41;;;-1.34;100.00
6134;BME280;3098;42.678;23.364;2023-01-29T04:57:06;95027.81;;;-1.25;100.00
6134;BME280;3098;42.678;23.364;2023-01-29T04:59:39;95114.25;;;-0.71;100.00
6134;BME280;3098;42.678;23.364;2023-01-29T05:02:08;95094.69;;;-0.85;100.00
6134;BME280;3098;42.678;23.364;2023-01-29T05:04:37;95038.63;;;-1.16;100.00
6134;BME280;3098;42.678;23.364;2023-01-29T05:07:09;95093.19;;;-0.81;100.00
6134;BME280;3098;42.678;23.364;2023-01-29T05:09:38;95126.09;;;-0.64;100.00
6134;BME280;3098;42.678;23.364;2023-01-29T05:12:08;95117.00;;;-0.61;100.00
6134;BME280;3098;42.678;23.364;2023-01-29T05:14:39;95123.94;;;-0.67;100.00
6134;BME280;3098;42.678;23.364;2023-01-29T05:17:13;95123.69;;;-0.65;100.00
6134;BME280;3098;42.678;23.364;2023-01-29T05:19:42;95101.47;;;-0.84;100.00
6134;BME280;3098;42.678;23.364;2023-01-29T05:22:13;95039.59;;;-1.22;100.00
6134;BME280;3098;42.678;23.364;2023-01-29T05:24:41;95127.81;;;-0.69;100.00
6134;BME280;3098;42.678;23.364;2023-01-29T05:27:15;95124.06;;;-0.73;100.00
6134;BME280;3098;42.678;23.364;2023-01-29T05:30:00;95134.03;;;-0.70;100.00
6134;BME280;3098;42.678;23.364;2023-01-29T05:32:28;95015.66;;;-1.47;100.00
6134;BME280;3098;42.678;23.364;2023-01-29T05:34:55;95132.34;;;-0.76;100.00
6134;BME280;3098;42.678;23.364;2023-01-29T05:37:24;95137.69;;;-0.71;100.00
6134;BME280;3098;42.678;23.364;2023-01-29T05:39:52;95145.34;;;-0.65;100.00
6134;BME280;3098;42.678;23.364;2023-01-29T05:42:20;95132.22;;;-0.70;100.00
6134;BME280;3098;42.678;23.364;2023-01-29T05:44:47;95103.66;;;-0.93;100.00
6134;BME280;3098;42.678;23.364;2023-01-29T05:47:18;95141.47;;;-0.62;100.00
6134;BME280;3098;42.678;23.364;2023-01-29T05:49:46;95114.03;;;-0.81;100.00
6134;BME280;3098;42.678;23.364;2023-01-29T05:52:13;95145.59;;;-0.66;100.00
6134;BME280;3098;42.678;23.364;2023-01-29T05:54:42;95140.38;;;-0.66;100.00
6134;BME280;3098;42.678;23.364;2023-01-29T05:57:10;95147.94;;;-0.65;100.00
6134;BME280;3098;42.678;23.364;2023-01-29T05:59:37;95154.28;;;-0.61;100.00
6134;BME280;3098;42.678;23.364;2023-01-29T06:02:05;95150.09;;;-0.62;100.00
6134;BME280;3098;42.678;23.364;2023-01-29T06:04:32;95156.09;;;-0.61;100.00
6134;BME280;3098;42.678;23.364;2023-01-29T06:07:00;95135.28;;;-0.73;100.00
6134;BME280;3098;42.678;23.364;2023-01-29T06:09:30;95163.78;;;-0.54;100.00
6134;BME280;3098;42.678;23.364;2023-01-29T06:11:59;95172.19;;;-0.64;100.00
6134;BME280;3098;42.678;23.364;2023-01-29T06:14:26;95164.69;;;-0.61;100.00
6134;BME280;3098;42.678;23.364;2023-01-29T06:16:54;95035.22;;;-1.45;100.00
6134;BME280;3098;42.678;23.364;2023-01-29T06:19:22;95049.56;;;-1.31;100.00
6134;BME280;3098;42.678;23.364;2023-01-29T06:21:49;95177.44;;;-0.47;100.00
6134;BME280;3098;42.678;23.364;2023-01-29T06:24:16;95152.13;;;-0.64;100.00
6134;BME280;3098;42.678;23.364;2023-01-29T06:26:44;95180.59;;;-0.45;100.00
6134;BME280;3098;42.678;23.364;2023-01-29T06:29:13;95168.66;;;-0.58;100.00
6134;BME280;3098;42.678;23.364;2023-01-29T06:31:41;95164.66;;;-0.49;100.00
6134;BME280;3098;42.678;23.364;2023-01-29T06:34:08;95194.47;;;-0.28;100.00
6134;BME280;3098;42.678;23.364;2023-01-29T06:36:36;95167.69;;;-0.40;100.00
6134;BME280;3098;42.678;23.364;2023-01-29T06:39:03;95139.00;;;-0.57;100.00
6134;BME280;3098;42.678;23.364;2023-01-29T06:41:31;95156.06;;;-0.49;100.00
6134;BME280;3098;42.678;23.364;2023-01-29T06:43:59;95195.78;;;-0.14;100.00
6134;BME280;3098;42.678;23.364;2023-01-29T06:46:28;94972.44;;;-1.77;100.00
6134;BME280;3098;42.678;23.364;2023-01-29T06:48:57;95191.13;;;-0.12;100.00
6134;BME280;3098;42.678;23.364;2023-01-29T06:51:25;95089.13;;;-0.77;100.00
6134;BME280;3098;42.678;23.364;2023-01-29T06:53:53;95196.44;;;-0.07;100.00
6134;BME280;3098;42.678;23.364;2023-01-29T06:56:23;95176.91;;;-0.21;100.00
6134;BME280;3098;42.678;23.364;2023-01-29T06:58:50;95209.56;;;-0.02;100.00
6134;BME280;3098;42.678;23.364;2023-01-29T07:01:18;95195.50;;;-0.01;100.00
6134;BME280;3098;42.678;23.364;2023-01-29T07:03:50;95212.16;;;-0.02;100.00
6134;BME280;3098;42.678;23.364;2023-01-29T07:06:17;95216.78;;;0.08;100.00
6134;BME280;3098;42.678;23.364;2023-01-29T07:08:44;95152.06;;;-0.40;100.00
6134;BME280;3098;42.678;23.364;2023-01-29T07:11:12;95225.41;;;0.08;100.00
6134;BME280;3098;42.678;23.364;2023-01-29T07:13:39;95168.53;;;-0.23;100.00
6134;BME280;3098;42.678;23.364;2023-01-29T07:16:08;95149.59;;;-0.47;100.00
6134;BME280;3098;42.678;23.364;2023-01-29T07:18:35;95228.22;;;0.07;100.00
6134;BME280;3098;42.678;23.364;2023-01-29T07:21:05;95184.47;;;-0.20;100.00
6134;BME280;3098;42.678;23.364;2023-01-29T07:23:33;95232.44;;;0.24;100.00
6134;BME280;3098;42.678;23.364;2023-01-29T07:26:01;95165.97;;;-0.35;100.00
6134;BME280;3098;42.678;23.364;2023-01-29T07:28:29;95188.56;;;0.05;100.00
6134;BME280;3098;42.678;23.364;2023-01-29T07:30:58;95190.75;;;-0.04;100.00
6134;BME280;3098;42.678;23.364;2023-01-29T07:33:29;95217.09;;;0.11;100.00
6134;BME280;3098;42.678;23.364;2023-01-29T07:35:56;95239.94;;;0.21;100.00
6134;BME280;3098;42.678;23.364;2023-01-29T07:38:26;95096.31;;;-0.68;100.00
6134;BME280;3098;42.678;23.364;2023-01-29T07:40:54;95239.09;;;0.32;100.00
6134;BME280;3098;42.678;23.364;2023-01-29T07:43:21;95235.47;;;0.33;100.00
6134;BME280;3098;42.678;23.364;2023-01-29T07:45:51;95186.25;;;-0.09;100.00
6134;BME280;3098;42.678;23.364;2023-01-29T07:48:19;95237.75;;;0.29;100.00
6134;BME280;3098;42.678;23.364;2023-01-29T07:50:54;95207.13;;;-0.09;100.00
6134;BME280;3098;42.678;23.364;2023-01-29T07:53:23;95232.56;;;0.01;100.00
6134;BME280;3098;42.678;23.364;2023-01-29T07:55:51;95243.38;;;-0.07;100.00
6134;BME280;3098;42.678;23.364;2023-01-29T07:58:19;95201.31;;;-0.39;100.00
6134;BME280;3098;42.678;23.364;2023-01-29T08:00:46;95182.19;;;-0.44;100.00
6134;BME280;3098;42.678;23.364;2023-01-29T08:03:15;95257.09;;;0.17;100.00
6134;BME280;3098;42.678;23.364;2023-01-29T08:05:45;95218.69;;;-0.16;100.00
6134;BME280;3098;42.678;23.364;2023-01-29T08:08:13;95219.84;;;-0.24;100.00
6134;BME280;3098;42.678;23.364;2023-01-29T08:10:41;95226.59;;;-0.11;100.00
6134;BME280;3098;42.678;23.364;2023-01-29T08:13:11;95204.44;;;-0.25;100.00
6134;BME280;3098;42.678;23.364;2023-01-29T08:15:41;95227.91;;;-0.25;100.00
6134;BME280;3098;42.678;23.364;2023-01-29T08:18:10;95256.28;;;-0.01;100.00
6134;BME280;3098;42.678;23.364;2023-01-29T08:20:38;95265.44;;;0.02;100.00
6134;BME280;3098;42.678;23.364;2023-01-29T08:23:09;95260.97;;;0.14;100.00
6134;BME280;3098;42.678;23.364;2023-01-29T08:25:38;95156.84;;;-0.49;100.00
6134;BME280;3098;42.678;23.364;2023-01-29T08:28:06;95267.97;;;0.25;100.00
6134;BME280;3098;42.678;23.364;2023-01-29T08:30:39;95281.34;;;0.17;100.00
6134;BME280;3098;42.678;23.364;2023-01-29T08:33:08;95272.03;;;0.21;100.00
6134;BME280;3098;42.678;23.364;2023-01-29T08:35:37;95229.78;;;-0.09;100.00
6134;BME280;3098;42.678;23.364;2023-01-29T08:38:05;95187.31;;;-0.21;100.00
6134;BME280;3098;42.678;23.364;2023-01-29T08:40:34;95223.16;;;0.00;100.00
6134;BME280;3098;42.678;23.364;2023-01-29T08:43:03;95206.31;;;-0.09;100.00
6134;BME280;3098;42.678;23.364;2023-01-29T08:45:34;95259.94;;;0.15;100.00
6134;BME280;3098;42.678;23.364;2023-01-29T08:48:04;95273.06;;;0.20;100.00
6134;BME280;3098;42.678;23.364;2023-01-29T08:50:33;95268.97;;;0.24;100.00
6134;BME280;3098;42.678;23.364;2023-01-29T08:53:02;95276.41;;;0.32;100.00
6134;BME280;3098;42.678;23.364;2023-01-29T08:55:33;95283.69;;;0.30;100.00
6134;BME280;3098;42.678;23.364;2023-01-29T08:58:02;95289.31;;;0.39;100.00
6134;BME280;3098;42.678;23.364;2023-01-29T09:00:30;95281.00;;;0.25;100.00
6134;BME280;3098;42.678;23.364;2023-01-29T09:02:58;95264.81;;;0.12;100.00
6134;BME280;3098;42.678;23.364;2023-01-29T09:05:27;95296.19;;;0.28;100.00
6134;BME280;3098;42.678;23.364;2023-01-29T09:07:56;95215.56;;;-0.30;100.00
6134;BME280;3098;42.678;23.364;2023-01-29T09:10:23;95300.44;;;0.34;100.00
6134;BME280;3098;42.678;23.364;2023-01-29T09:12:51;95283.63;;;0.42;100.00
6134;BME280;3098;42.678;23.364;2023-01-29T09:15:18;95290.81;;;0.51;100.00
6134;BME280;3098;42.678;23.364;2023-01-29T09:17:46;95284.94;;;0.73;100.00
6134;BME280;3098;42.678;23.364;2023-01-29T09:20:15;95289.56;;;0.54;100.00
6134;BME280;3098;42.678;23.364;2023-01-29T09:22:44;95284.44;;;0.42;100.00
6134;BME280;3098;42.678;23.364;2023-01-29T09:25:12;95284.91;;;0.39;100.00
6134;BME280;3098;42.678;23.364;2023-01-29T09:27:39;95287.19;;;0.36;100.00
6134;BME280;3098;42.678;23.364;2023-01-29T09:30:07;95286.72;;;0.39;100.00
6134;BME280;3098;42.678;23.364;2023-01-29T09:32:34;95276.81;;;0.41;100.00
6134;BME280;3098;42.678;23.364;2023-01-29T09:35:01;95225.06;;;0.05;100.00
6134;BME280;3098;42.678;23.364;2023-01-29T09:37:29;95219.13;;;0.09;100.00
6134;BME280;3098;42.678;23.364;2023-01-29T09:39:57;95264.50;;;0.36;100.00
6134;BME280;3098;42.678;23.364;2023-01-29T09:42:28;95275.41;;;0.50;100.00
6134;BME280;3098;42.678;23.364;2023-01-29T09:45:03;95242.28;;;0.34;100.00
6134;BME280;3098;42.678;23.364;2023-01-29T09:47:34;95266.00;;;0.49;100.00
6134;BME280;3098;42.678;23.364;2023-01-29T09:50:05;95253.59;;;0.39;100.00
6134;BME280;3098;42.678;23.364;2023-01-29T09:52:37;95245.66;;;0.34;100.00
6134;BME280;3098;42.678;23.364;2023-01-29T09:55:11;95262.59;;;0.48;100.00
6134;BME280;3098;42.678;23.364;2023-01-29T09:57:45;95239.28;;;0.42;100.00
6134;BME280;3098;42.678;23.364;2023-01-29T10:00:19;95251.84;;;0.45;100.00
6134;BME280;3098;42.678;23.364;2023-01-29T10:03:03;95245.66;;;0.34;100.00
6134;BME280;3098;42.678;23.364;2023-01-29T10:05:50;95242.50;;;0.49;100.00
6134;BME280;3098;42.678;23.364;2023-01-29T10:08:40;95267.28;;;0.63;100.00
6134;BME280;3098;42.678;23.364;2023-01-29T10:11:23;95199.88;;;0.27;100.00
6134;BME280;3098;42.678;23.364;2023-01-29T10:13:59;95091.75;;;-0.61;100.00
6134;BME280;3098;42.678;23.364;2023-01-29T10:16:41;95252.72;;;0.50;100.00
6134;BME280;3098;42.678;23.364;2023-01-29T10:19:33;95248.13;;;0.57;100.00
6134;BME280;3098;42.678;23.364;2023-01-29T10:25:01;95245.84;;;0.61;100.00
6134;BME280;3098;42.678;23.364;2023-01-29T10:27:33;95225.28;;;0.48;100.00
6134;BME280;3098;42.678;23.364;2023-01-29T10:30:07;95225.19;;;0.43;100.00
6134;BME280;3098;42.678;23.364;2023-01-29T10:32:36;95237.28;;;0.49;100.00
6134;BME280;3098;42.678;23.364;2023-01-29T10:35:14;95238.63;;;0.51;100.00
6134;BME280;3098;42.678;23.364;2023-01-29T10:37:46;95121.22;;;-0.15;100.00
6134;BME280;3098;42.678;23.364;2023-01-29T10:40:22;95238.81;;;0.62;100.00
6134;BME280;3098;42.678;23.364;2023-01-29T10:42:57;95237.63;;;0.69;100.00
6134;BME280;3098;42.678;23.364;2023-01-29T10:45:32;95232.25;;;0.76;100.00
6134;BME280;3098;42.678;23.364;2023-01-29T10:48:34;95236.41;;;0.77;100.00
6134;BME280;3098;42.678;23.364;2023-01-29T10:51:11;95230.44;;;0.76;100.00
6134;BME280;3098;42.678;23.364;2023-01-29T10:53:47;95228.44;;;0.67;100.00
6134;BME280;3098;42.678;23.364;2023-01-29T10:56:34;95224.41;;;0.76;100.00
6134;BME280;3098;42.678;23.364;2023-01-29T10:59:17;95183.28;;;0.49;100.00
6134;BME280;3098;42.678;23.364;2023-01-29T11:01:57;95222.72;;;0.86;100.00
6134;BME280;3098;42.678;23.364;2023-01-29T11:04:25;95226.84;;;0.99;100.00
6134;BME280;3098;42.678;23.364;2023-01-29T11:06:57;95200.50;;;0.84;100.00
6134;BME280;3098;42.678;23.364;2023-01-29T11:09:42;95219.44;;;0.91;100.00
6134;BME280;3098;42.678;23.364;2023-01-29T11:12:21;95241.56;;;0.88;100.00
6134;BME280;3098;42.678;23.364;2023-01-29T11:14:56;95178.22;;;0.43;100.00
6134;BME280;3098;42.678;23.364;2023-01-29T11:17:26;95058.59;;;-0.20;100.00
6134;BME280;3098;42.678;23.364;2023-01-29T11:19:54;95145.03;;;0.38;100.00
6134;BME280;3098;42.678;23.364;2023-01-29T11:22:23;95217.09;;;0.94;100.00
6134;BME280;3098;42.678;23.364;2023-01-29T11:25:09;95189.16;;;0.56;100.00
6134;BME280;3098;42.678;23.364;2023-01-29T11:27:42;95028.88;;;-0.36;100.00
6134;BME280;3098;42.678;23.364;2023-01-29T11:30:22;95169.06;;;0.74;100.00
6134;BME280;3098;42.678;23.364;2023-01-29T11:32:55;95199.47;;;1.01;100.00
6134;BME280;3098;42.678;23.364;2023-01-29T11:35:26;95177.38;;;0.92;100.00
6134;BME280;3098;42.678;23.364;2023-01-29T11:38:06;95199.63;;;1.16;100.00
6134;BME280;3098;42.678;23.364;2023-01-29T11:40:38;95175.47;;;1.26;100.00
6134;BME280;3098;42.678;23.364;2023-01-29T11:43:17;95180.66;;;1.64;100.00
6134;BME280;3098;42.678;23.364;2023-01-29T11:45:48;95123.09;;;1.38;100.00
6134;BME280;3098;42.678;23.364;2023-01-29T11:48:17;95176.34;;;1.80;100.00
6134;BME280;3098;42.678;23.364;2023-01-29T11:50:50;95173.69;;;1.75;100.00
6134;BME280;3098;42.678;23.364;2023-01-29T11:53:25;95177.19;;;1.86;100.00
6134;BME280;3098;42.678;23.364;2023-01-29T11:55:57;94981.50;;;0.66;100.00
6134;BME280;3098;42.678;23.364;2023-01-29T11:58:27;95147.25;;;1.71;100.00
6134;BME280;3098;42.678;23.364;2023-01-29T12:00:58;95166.59;;;1.49;100.00
6134;BME280;3098;42.678;23.364;2023-01-29T12:03:33;95181.13;;;1.61;100.00
6134;BME280;3098;42.678;23.364;2023-01-29T12:06:04;95160.81;;;1.68;100.00
6134;BME280;3098;42.678;23.364;2023-01-29T12:08:35;95177.69;;;1.83;100.00
6134;BME280;3098;42.678;23.364;2023-01-29T12:11:11;95137.31;;;1.25;100.00
6134;BME280;3098;42.678;23.364;2023-01-29T12:13:40;94994.44;;;0.34;100.00
6134;BME280;3098;42.678;23.364;2023-01-29T12:16:18;95167.28;;;1.61;100.00
6134;BME280;3098;42.678;23.364;2023-01-29T12:18:52;95102.25;;;1.43;100.00
6134;BME280;3098;42.678;23.364;2023-01-29T12:21:27;95121.94;;;1.29;100.00
6134;BME280;3098;42.678;23.364;2023-01-29T12:24:00;95183.47;;;1.36;100.00
6134;BME280;3098;42.678;23.364;2023-01-29T12:26:33;95137.38;;;1.08;100.00
6134;BME280;3098;42.678;23.364;2023-01-29T12:29:20;95164.72;;;1.23;100.00
6134;BME280;3098;42.678;23.364;2023-01-29T12:31:58;95172.06;;;1.26;100.00
6134;BME280;3098;42.678;23.364;2023-01-29T12:34:35;95172.38;;;1.29;100.00
6134;BME280;3098;42.678;23.364;2023-01-29T12:37:12;95166.53;;;1.22;100.00
6134;BME280;3098;42.678;23.364;2023-01-29T12:39:44;95170.19;;;1.43;100.00
6134;BME280;3098;42.678;23.364;2023-01-29T12:42:15;95146.88;;;1.36;100.00
6134;BME280;3098;42.678;23.364;2023-01-29T12:44:47;95170.78;;;1.71;100.00
6134;BME280;3098;42.678;23.364;2023-01-29T12:47:22;95165.56;;;1.50;100.00
6134;BME280;3098;42.678;23.364;2023-01-29T12:49:55;95176.66;;;1.62;100.00
6134;BME280;3098;42.678;23.364;2023-01-29T12:52:36;95147.03;;;1.51;100.00
6134;BME280;3098;42.678;23.364;2023-01-29T12:55:10;95129.69;;;1.19;100.00
6134;BME280;3098;42.678;23.364;2023-01-29T12:57:43;95168.25;;;1.33;100.00
6134;BME280;3098;42.678;23.364;2023-01-29T13:00:16;95171.16;;;1.37;100.00
6134;BME280;3098;42.678;23.364;2023-01-29T13:02:54;95175.53;;;1.31;100.00
6134;BME280;3098;42.678;23.364;2023-01-29T13:05:25;95097.88;;;0.83;100.00
6134;BME280;3098;42.678;23.364;2023-01-29T13:08:00;95144.56;;;1.18;100.00
6134;BME280;3098;42.678;23.364;2023-01-29T13:10:33;95111.38;;;1.19;100.00
6134;BME280;3098;42.678;23.364;2023-01-29T13:13:06;95165.31;;;1.51;100.00
6134;BME280;3098;42.678;23.364;2023-01-29T13:15:40;95123.47;;;1.25;100.00
6134;BME280;3098;42.678;23.364;2023-01-29T13:18:29;95132.44;;;1.34;100.00
6134;BME280;3098;42.678;23.364;2023-01-29T13:21:00;95164.16;;;1.42;100.00
6134;BME280;3098;42.678;23.364;2023-01-29T13:23:33;95165.81;;;1.48;100.00
6134;BME280;3098;42.678;23.364;2023-01-29T13:26:02;95161.81;;;1.41;100.00
6134;BME280;3098;42.678;23.364;2023-01-29T13:28:31;95144.00;;;1.16;100.00
6134;BME280;3098;42.678;23.364;2023-01-29T13:31:24;95141.19;;;1.23;100.00
6134;BME280;3098;42.678;23.364;2023-01-29T13:34:06;95185.66;;;1.44;100.00
6134;BME280;3098;42.678;23.364;2023-01-29T13:36:36;95192.91;;;1.42;100.00
6134;BME280;3098;42.678;23.364;2023-01-29T13:39:17;95180.69;;;1.26;100.00
6134;BME280;3098;42.678;23.364;2023-01-29T13:41:46;95186.78;;;1.10;100.00